sensor_id;sensor_type;location;lat;lon;timestamp;P1;durP1;ratioP1;P2;durP2;ratioP2
66856;SDS011;53766;50.280;19.160;2022-10-23T00:01:36;12.68;;;8.23;;
66856;SDS011;53766;50.280;19.160;2022-10-23T00:04:11;13.98;;;7.93;;
66856;SDS011;53766;50.280;19.160;2022-10-23T00:06:41;13.93;;;8.38;;
66856;SDS011;53766;50.280;19.160;2022-10-23T00:09:10;15.32;;;8.73;;
66856;SDS011;53766;50.280;19.160;2022-10-23T00:11:39;11.70;;;7.85;;
66856;SDS011;53766;50.280;19.160;2022-10-23T00:14:08;12.13;;;7.95;;
66856;SDS011;53766;50.280;19.160;2022-10-23T00:16:36;14.95;;;8.25;;
66856;SDS011;53766;50.280;19.160;2022-10-23T00:19:03;11.23;;;7.78;;
66856;SDS011;53766;50.280;19.160;2022-10-23T00:21:33;13.75;;;8.13;;
66856;SDS011;53766;50.280;19.160;2022-10-23T00:24:00;11.60;;;7.65;;
66856;SDS011;53766;50.280;19.160;2022-10-23T00:26:28;13.30;;;8.13;;
66856;SDS011;53766;50.280;19.160;2022-10-23T00:28:56;15.75;;;8.38;;
66856;SDS011;53766;50.280;19.160;2022-10-23T00:31:24;11.80;;;8.02;;
66856;SDS011;53766;50.280;19.160;2022-10-23T00:33:52;11.23;;;7.78;;
66856;SDS011;53766;50.280;19.160;2022-10-23T00:36:20;13.80;;;8.65;;
66856;SDS011;53766;50.280;19.160;2022-10-23T00:38:48;13.88;;;7.82;;
66856;SDS011;53766;50.280;19.160;2022-10-23T00:41:24;12.05;;;8.07;;
66856;SDS011;53766;50.280;19.160;2022-10-23T00:46:35;14.75;;;7.82;;
66856;SDS011;53766;50.280;19.160;2022-10-23T00:49:04;13.18;;;7.55;;
66856;SDS011;53766;50.280;19.160;2022-10-23T00:51:44;12.15;;;7.70;;
66856;SDS011;53766;50.280;19.160;2022-10-23T00:54:17;11.93;;;7.68;;
66856;SDS011;53766;50.280;19.160;2022-10-23T00:56:52;12.52;;;7.80;;
66856;SDS011;53766;50.280;19.160;2022-10-23T00:59:24;12.88;;;8.20;;
66856;SDS011;53766;50.280;19.160;2022-10-23T01:01:52;12.32;;;7.57;;
66856;SDS011;53766;50.280;19.160;2022-10-23T01:04:20;12.48;;;8.52;;
66856;SDS011;53766;50.280;19.160;2022-10-23T01:28:49;11.77;;;7.72;;
66856;SDS011;53766;50.280;19.160;2022-10-23T01:31:32;11.55;;;7.72;;
66856;SDS011;53766;50.280;19.160;2022-10-23T01:34:11;12.82;;;8.05;;
66856;SDS011;53766;50.280;19.160;2022-10-23T01:36:42;11.25;;;7.75;;
66856;SDS011;53766;50.280;19.160;2022-10-23T01:39:14;12.00;;;7.40;;
66856;SDS011;53766;50.280;19.160;2022-10-23T01:41:52;12.13;;;7.55;;
66856;SDS011;53766;50.280;19.160;2022-10-23T01:47:10;14.25;;;7.45;;
66856;SDS011;53766;50.280;19.160;2022-10-23T01:49:40;14.07;;;8.10;;
66856;SDS011;53766;50.280;19.160;2022-10-23T01:52:10;12.68;;;7.90;;
66856;SDS011;53766;50.280;19.160;2022-10-23T01:54:41;10.88;;;7.15;;
66856;SDS011;53766;50.280;19.160;2022-10-23T01:57:13;12.88;;;7.93;;
66856;SDS011;53766;50.280;19.160;2022-10-23T01:59:45;12.88;;;8.18;;
66856;SDS011;53766;50.280;19.160;2022-10-23T02:02:19;11.90;;;7.88;;
66856;SDS011;53766;50.280;19.160;2022-10-23T02:05:01;12.60;;;7.75;;
66856;SDS011;53766;50.280;19.160;2022-10-23T02:07:33;10.50;;;7.03;;
66856;SDS011;53766;50.280;19.160;2022-10-23T02:10:03;13.02;;;8.15;;
66856;SDS011;53766;50.280;19.160;2022-10-23T02:23:33;11.57;;;7.43;;
66856;SDS011;53766;50.280;19.160;2022-10-23T02:26:16;10.80;;;7.25;;
66856;SDS011;53766;50.280;19.160;2022-10-23T02:28:51;11.93;;;7.88;;
66856;SDS011;53766;50.280;19.160;2022-10-23T02:31:23;11.52;;;7.15;;
66856;SDS011;53766;50.280;19.160;2022-10-23T02:33:51;10.85;;;7.05;;
66856;SDS011;53766;50.280;19.160;2022-10-23T02:36:19;11.45;;;7.38;;
66856;SDS011;53766;50.280;19.160;2022-10-23T02:38:46;13.18;;;7.90;;
66856;SDS011;53766;50.280;19.160;2022-10-23T02:44:27;10.88;;;7.60;;
66856;SDS011;53766;50.280;19.160;2022-10-23T02:50:25;9.95;;;7.07;;
66856;SDS011;53766;50.280;19.160;2022-10-23T03:01:26;10.27;;;7.30;;
66856;SDS011;53766;50.280;19.160;2022-10-23T03:04:02;10.73;;;7.18;;
66856;SDS011;53766;50.280;19.160;2022-10-23T03:06:31;10.50;;;6.68;;
66856;SDS011;53766;50.280;19.160;2022-10-23T03:09:02;10.02;;;7.50;;
66856;SDS011;53766;50.280;19.160;2022-10-23T03:11:32;11.43;;;7.28;;
66856;SDS011;53766;50.280;19.160;2022-10-23T03:14:00;11.10;;;7.20;;
66856;SDS011;53766;50.280;19.160;2022-10-23T03:16:28;12.02;;;8.23;;
66856;SDS011;53766;50.280;19.160;2022-10-23T03:18:55;13.40;;;7.35;;
66856;SDS011;53766;50.280;19.160;2022-10-23T03:21:23;10.77;;;6.95;;
66856;SDS011;53766;50.280;19.160;2022-10-23T03:23:51;10.60;;;7.05;;
66856;SDS011;53766;50.280;19.160;2022-10-23T03:26:19;13.00;;;7.80;;
66856;SDS011;53766;50.280;19.160;2022-10-23T03:28:47;12.05;;;7.47;;
66856;SDS011;53766;50.280;19.160;2022-10-23T03:31:15;11.80;;;7.60;;
66856;SDS011;53766;50.280;19.160;2022-10-23T03:33:43;9.95;;;7.13;;
66856;SDS011;53766;50.280;19.160;2022-10-23T03:36:11;11.50;;;7.20;;
66856;SDS011;53766;50.280;19.160;2022-10-23T03:38:39;11.20;;;7.32;;
66856;SDS011;53766;50.280;19.160;2022-10-23T03:41:06;12.05;;;7.68;;
66856;SDS011;53766;50.280;19.160;2022-10-23T03:43:34;11.63;;;7.50;;
66856;SDS011;53766;50.280;19.160;2022-10-23T03:46:02;9.65;;;6.75;;
66856;SDS011;53766;50.280;19.160;2022-10-23T03:48:35;12.30;;;7.38;;
66856;SDS011;53766;50.280;19.160;2022-10-23T03:51:05;10.70;;;6.75;;
66856;SDS011;53766;50.280;19.160;2022-10-23T03:53:33;10.35;;;6.80;;
66856;SDS011;53766;50.280;19.160;2022-10-23T03:56:01;10.35;;;6.93;;
66856;SDS011;53766;50.280;19.160;2022-10-23T03:58:28;11.30;;;7.32;;
66856;SDS011;53766;50.280;19.160;2022-10-23T04:00:57;10.40;;;6.88;;
66856;SDS011;53766;50.280;19.160;2022-10-23T04:03:25;10.27;;;6.88;;
66856;SDS011;53766;50.280;19.160;2022-10-23T04:05:53;9.68;;;6.72;;
66856;SDS011;53766;50.280;19.160;2022-10-23T04:08:20;9.85;;;6.63;;
66856;SDS011;53766;50.280;19.160;2022-10-23T04:10:48;10.77;;;7.18;;
66856;SDS011;53766;50.280;19.160;2022-10-23T04:13:15;8.40;;;6.43;;
66856;SDS011;53766;50.280;19.160;2022-10-23T04:15:47;10.57;;;7.45;;
66856;SDS011;53766;50.280;19.160;2022-10-23T04:18:18;9.98;;;7.18;;
66856;SDS011;53766;50.280;19.160;2022-10-23T04:20:46;10.40;;;7.18;;
66856;SDS011;53766;50.280;19.160;2022-10-23T04:23:15;10.00;;;7.25;;
66856;SDS011;53766;50.280;19.160;2022-10-23T04:25:44;10.70;;;6.85;;
66856;SDS011;53766;50.280;19.160;2022-10-23T04:28:17;10.98;;;6.75;;
66856;SDS011;53766;50.280;19.160;2022-10-23T04:30:44;10.77;;;6.57;;
66856;SDS011;53766;50.280;19.160;2022-10-23T04:33:12;10.25;;;6.82;;
66856;SDS011;53766;50.280;19.160;2022-10-23T04:35:40;10.90;;;7.15;;
66856;SDS011;53766;50.280;19.160;2022-10-23T04:38:07;9.10;;;6.65;;
66856;SDS011;53766;50.280;19.160;2022-10-23T04:40:35;11.43;;;7.63;;
66856;SDS011;53766;50.280;19.160;2022-10-23T04:43:03;10.45;;;6.93;;
66856;SDS011;53766;50.280;19.160;2022-10-23T04:45:31;9.88;;;6.93;;
66856;SDS011;53766;50.280;19.160;2022-10-23T04:47:58;10.68;;;7.20;;
66856;SDS011;53766;50.280;19.160;2022-10-23T04:50:27;9.88;;;6.82;;
66856;SDS011;53766;50.280;19.160;2022-10-23T04:52:55;10.20;;;6.90;;
66856;SDS011;53766;50.280;19.160;2022-10-23T04:55:23;10.10;;;7.00;;
66856;SDS011;53766;50.280;19.160;2022-10-23T04:57:54;12.38;;;7.18;;
66856;SDS011;53766;50.280;19.160;2022-10-23T05:00:22;9.13;;;6.70;;
66856;SDS011;53766;50.280;19.160;2022-10-23T05:02:50;10.40;;;6.82;;
66856;SDS011;53766;50.280;19.160;2022-10-23T05:05:17;10.57;;;7.13;;
66856;SDS011;53766;50.280;19.160;2022-10-23T05:07:45;9.65;;;6.88;;
66856;SDS011;53766;50.280;19.160;2022-10-23T05:10:13;10.38;;;6.43;;
66856;SDS011;53766;50.280;19.160;2022-10-23T05:12:40;11.60;;;6.95;;
66856;SDS011;53766;50.280;19.160;2022-10-23T05:15:08;10.45;;;6.85;;
66856;SDS011;53766;50.280;19.160;2022-10-23T05:17:36;9.93;;;6.95;;
66856;SDS011;53766;50.280;19.160;2022-10-23T05:20:09;10.20;;;6.75;;
66856;SDS011;53766;50.280;19.160;2022-10-23T05:22:40;11.18;;;7.13;;
66856;SDS011;53766;50.280;19.160;2022-10-23T05:25:11;12.20;;;6.88;;
66856;SDS011;53766;50.280;19.160;2022-10-23T05:27:39;10.23;;;6.63;;
66856;SDS011;53766;50.280;19.160;2022-10-23T05:30:08;9.13;;;6.53;;
66856;SDS011;53766;50.280;19.160;2022-10-23T05:32:36;10.73;;;6.78;;
66856;SDS011;53766;50.280;19.160;2022-10-23T05:35:06;9.13;;;6.40;;
66856;SDS011;53766;50.280;19.160;2022-10-23T05:37:37;9.35;;;6.35;;
66856;SDS011;53766;50.280;19.160;2022-10-23T05:40:08;10.52;;;6.93;;
66856;SDS011;53766;50.280;19.160;2022-10-23T05:42:36;10.02;;;7.03;;
66856;SDS011;53766;50.280;19.160;2022-10-23T05:45:08;8.73;;;6.40;;
66856;SDS011;53766;50.280;19.160;2022-10-23T05:47:36;10.50;;;7.10;;
66856;SDS011;53766;50.280;19.160;2022-10-23T05:50:03;11.80;;;7.30;;
66856;SDS011;53766;50.280;19.160;2022-10-23T05:52:31;9.43;;;6.93;;
66856;SDS011;53766;50.280;19.160;2022-10-23T05:54:59;9.75;;;6.95;;
66856;SDS011;53766;50.280;19.160;2022-10-23T05:57:27;10.52;;;6.97;;
66856;SDS011;53766;50.280;19.160;2022-10-23T05:59:54;10.73;;;7.15;;
66856;SDS011;53766;50.280;19.160;2022-10-23T06:02:22;7.65;;;6.07;;
66856;SDS011;53766;50.280;19.160;2022-10-23T06:04:49;8.88;;;6.47;;
66856;SDS011;53766;50.280;19.160;2022-10-23T06:07:22;10.38;;;6.93;;
66856;SDS011;53766;50.280;19.160;2022-10-23T06:09:57;9.90;;;6.55;;
66856;SDS011;53766;50.280;19.160;2022-10-23T06:12:25;9.80;;;6.47;;
66856;SDS011;53766;50.280;19.160;2022-10-23T06:14:52;10.05;;;6.57;;
66856;SDS011;53766;50.280;19.160;2022-10-23T06:17:20;7.90;;;6.05;;
66856;SDS011;53766;50.280;19.160;2022-10-23T06:19:47;10.02;;;6.30;;
66856;SDS011;53766;50.280;19.160;2022-10-23T06:22:15;9.25;;;6.55;;
66856;SDS011;53766;50.280;19.160;2022-10-23T06:24:43;10.38;;;7.03;;
66856;SDS011;53766;50.280;19.160;2022-10-23T06:27:10;8.13;;;5.95;;
66856;SDS011;53766;50.280;19.160;2022-10-23T06:29:38;14.65;;;7.22;;
66856;SDS011;53766;50.280;19.160;2022-10-23T06:32:07;9.77;;;6.82;;
66856;SDS011;53766;50.280;19.160;2022-10-23T06:34:35;10.20;;;6.28;;
66856;SDS011;53766;50.280;19.160;2022-10-23T06:37:03;10.18;;;6.60;;
66856;SDS011;53766;50.280;19.160;2022-10-23T06:39:31;9.55;;;6.70;;
66856;SDS011;53766;50.280;19.160;2022-10-23T06:41:59;10.27;;;6.63;;
66856;SDS011;53766;50.280;19.160;2022-10-23T06:44:26;10.25;;;6.57;;
66856;SDS011;53766;50.280;19.160;2022-10-23T06:46:54;9.07;;;6.20;;
66856;SDS011;53766;50.280;19.160;2022-10-23T06:49:22;9.30;;;6.30;;
66856;SDS011;53766;50.280;19.160;2022-10-23T06:51:49;9.35;;;6.85;;
66856;SDS011;53766;50.280;19.160;2022-10-23T06:54:17;10.27;;;6.68;;
66856;SDS011;53766;50.280;19.160;2022-10-23T06:56:44;10.15;;;7.07;;
66856;SDS011;53766;50.280;19.160;2022-10-23T06:59:12;10.10;;;6.30;;
66856;SDS011;53766;50.280;19.160;2022-10-23T07:01:40;11.82;;;7.22;;
66856;SDS011;53766;50.280;19.160;2022-10-23T07:04:08;10.30;;;6.65;;
66856;SDS011;53766;50.280;19.160;2022-10-23T07:06:35;9.75;;;6.53;;
66856;SDS011;53766;50.280;19.160;2022-10-23T07:09:04;11.70;;;6.70;;
66856;SDS011;53766;50.280;19.160;2022-10-23T07:11:31;11.35;;;7.30;;
66856;SDS011;53766;50.280;19.160;2022-10-23T07:13:59;13.23;;;7.82;;
66856;SDS011;53766;50.280;19.160;2022-10-23T07:16:27;12.93;;;8.35;;
66856;SDS011;53766;50.280;19.160;2022-10-23T07:18:56;13.18;;;8.38;;
66856;SDS011;53766;50.280;19.160;2022-10-23T07:21:28;12.88;;;9.35;;
66856;SDS011;53766;50.280;19.160;2022-10-23T07:23:58;15.77;;;9.18;;
66856;SDS011;53766;50.280;19.160;2022-10-23T07:26:25;13.50;;;9.38;;
66856;SDS011;53766;50.280;19.160;2022-10-23T07:28:54;18.13;;;10.15;;
66856;SDS011;53766;50.280;19.160;2022-10-23T07:31:22;16.25;;;10.07;;
66856;SDS011;53766;50.280;19.160;2022-10-23T07:33:54;15.57;;;10.63;;
66856;SDS011;53766;50.280;19.160;2022-10-23T07:36:22;17.13;;;10.57;;
66856;SDS011;53766;50.280;19.160;2022-10-23T07:38:51;18.00;;;10.88;;
66856;SDS011;53766;50.280;19.160;2022-10-23T07:41:18;17.33;;;10.82;;
66856;SDS011;53766;50.280;19.160;2022-10-23T07:43:46;16.98;;;10.80;;
66856;SDS011;53766;50.280;19.160;2022-10-23T07:46:14;17.63;;;10.77;;
66856;SDS011;53766;50.280;19.160;2022-10-23T07:48:42;15.93;;;10.80;;
66856;SDS011;53766;50.280;19.160;2022-10-23T07:51:13;19.13;;;11.18;;
66856;SDS011;53766;50.280;19.160;2022-10-23T07:53:42;20.77;;;11.77;;
66856;SDS011;53766;50.280;19.160;2022-10-23T07:56:17;20.58;;;12.00;;
66856;SDS011;53766;50.280;19.160;2022-10-23T07:58:49;18.08;;;11.38;;
66856;SDS011;53766;50.280;19.160;2022-10-23T08:01:24;17.55;;;11.70;;
66856;SDS011;53766;50.280;19.160;2022-10-23T08:03:57;21.25;;;11.85;;
66856;SDS011;53766;50.280;19.160;2022-10-23T08:06:25;21.30;;;11.27;;
66856;SDS011;53766;50.280;19.160;2022-10-23T08:08:53;23.02;;;11.95;;
66856;SDS011;53766;50.280;19.160;2022-10-23T08:11:22;27.77;;;11.68;;
66856;SDS011;53766;50.280;19.160;2022-10-23T08:13:55;35.95;;;12.05;;
66856;SDS011;53766;50.280;19.160;2022-10-23T08:16:24;20.85;;;10.15;;
66856;SDS011;53766;50.280;19.160;2022-10-23T08:18:52;24.13;;;11.35;;
66856;SDS011;53766;50.280;19.160;2022-10-23T08:21:19;22.45;;;10.75;;
66856;SDS011;53766;50.280;19.160;2022-10-23T08:23:48;23.95;;;10.57;;
66856;SDS011;53766;50.280;19.160;2022-10-23T08:26:16;22.75;;;10.93;;
66856;SDS011;53766;50.280;19.160;2022-10-23T08:28:44;25.08;;;11.10;;
66856;SDS011;53766;50.280;19.160;2022-10-23T08:31:12;30.80;;;11.07;;
66856;SDS011;53766;50.280;19.160;2022-10-23T08:33:42;29.95;;;10.27;;
66856;SDS011;53766;50.280;19.160;2022-10-23T08:36:23;32.20;;;10.40;;
66856;SDS011;53766;50.280;19.160;2022-10-23T08:38:53;23.15;;;10.50;;
66856;SDS011;53766;50.280;19.160;2022-10-23T08:41:46;24.95;;;9.95;;
66856;SDS011;53766;50.280;19.160;2022-10-23T08:44:29;27.50;;;9.90;;
66856;SDS011;53766;50.280;19.160;2022-10-23T08:47:03;19.00;;;10.13;;
66856;SDS011;53766;50.280;19.160;2022-10-23T08:52:18;20.77;;;9.95;;
66856;SDS011;53766;50.280;19.160;2022-10-23T08:57:49;18.92;;;9.38;;
66856;SDS011;53766;50.280;19.160;2022-10-23T09:00:41;20.08;;;9.90;;
66856;SDS011;53766;50.280;19.160;2022-10-23T09:03:11;27.13;;;9.68;;
66856;SDS011;53766;50.280;19.160;2022-10-23T09:08:20;37.70;;;9.88;;
66856;SDS011;53766;50.280;19.160;2022-10-23T09:14:07;21.23;;;9.02;;
66856;SDS011;53766;50.280;19.160;2022-10-23T09:19:45;23.17;;;9.40;;
66856;SDS011;53766;50.280;19.160;2022-10-23T09:22:13;25.98;;;9.40;;
66856;SDS011;53766;50.280;19.160;2022-10-23T09:24:41;27.40;;;10.50;;
66856;SDS011;53766;50.280;19.160;2022-10-23T09:27:13;21.85;;;8.85;;
66856;SDS011;53766;50.280;19.160;2022-10-23T09:29:47;22.30;;;9.05;;
66856;SDS011;53766;50.280;19.160;2022-10-23T09:32:17;24.98;;;8.63;;
66856;SDS011;53766;50.280;19.160;2022-10-23T09:34:52;19.85;;;8.95;;
66856;SDS011;53766;50.280;19.160;2022-10-23T09:42:58;26.92;;;8.70;;
66856;SDS011;53766;50.280;19.160;2022-10-23T09:45:31;21.90;;;8.45;;
66856;SDS011;53766;50.280;19.160;2022-10-23T09:48:05;21.30;;;8.63;;
66856;SDS011;53766;50.280;19.160;2022-10-23T09:50:35;25.95;;;8.48;;
66856;SDS011;53766;50.280;19.160;2022-10-23T09:53:03;16.65;;;8.32;;
66856;SDS011;53766;50.280;19.160;2022-10-23T09:55:31;18.50;;;8.50;;
66856;SDS011;53766;50.280;19.160;2022-10-23T09:57:59;23.83;;;8.25;;
66856;SDS011;53766;50.280;19.160;2022-10-23T10:00:26;21.05;;;8.27;;
66856;SDS011;53766;50.280;19.160;2022-10-23T10:02:56;21.58;;;8.27;;
66856;SDS011;53766;50.280;19.160;2022-10-23T10:05:32;20.92;;;8.90;;
66856;SDS011;53766;50.280;19.160;2022-10-23T10:08:03;19.05;;;8.32;;
66856;SDS011;53766;50.280;19.160;2022-10-23T10:10:49;20.88;;;8.40;;
66856;SDS011;53766;50.280;19.160;2022-10-23T10:16:01;26.40;;;9.15;;
66856;SDS011;53766;50.280;19.160;2022-10-23T10:18:35;26.83;;;8.40;;
66856;SDS011;53766;50.280;19.160;2022-10-23T10:31:39;27.23;;;8.18;;
66856;SDS011;53766;50.280;19.160;2022-10-23T10:52:36;20.33;;;7.97;;
66856;SDS011;53766;50.280;19.160;2022-10-23T10:55:18;15.57;;;7.93;;
66856;SDS011;53766;50.280;19.160;2022-10-23T11:00:26;24.00;;;8.00;;
66856;SDS011;53766;50.280;19.160;2022-10-23T11:05:41;32.08;;;8.00;;
66856;SDS011;53766;50.280;19.160;2022-10-23T11:10:44;16.85;;;7.68;;
66856;SDS011;53766;50.280;19.160;2022-10-23T11:13:21;14.05;;;7.32;;
66856;SDS011;53766;50.280;19.160;2022-10-23T11:15:58;13.95;;;7.60;;
66856;SDS011;53766;50.280;19.160;2022-10-23T11:18:31;18.15;;;7.40;;
66856;SDS011;53766;50.280;19.160;2022-10-23T11:35:22;69.03;;;8.40;;
66856;SDS011;53766;50.280;19.160;2022-10-23T11:40:43;13.35;;;6.65;;
66856;SDS011;53766;50.280;19.160;2022-10-23T11:43:24;12.05;;;6.53;;
66856;SDS011;53766;50.280;19.160;2022-10-23T11:46:12;19.27;;;7.13;;
66856;SDS011;53766;50.280;19.160;2022-10-23T11:48:42;14.32;;;7.20;;
66856;SDS011;53766;50.280;19.160;2022-10-23T11:54:04;16.92;;;7.38;;
66856;SDS011;53766;50.280;19.160;2022-10-23T11:56:54;15.95;;;6.55;;
66856;SDS011;53766;50.280;19.160;2022-10-23T11:59:49;12.65;;;6.63;;
66856;SDS011;53766;50.280;19.160;2022-10-23T12:02:37;13.32;;;6.53;;
66856;SDS011;53766;50.280;19.160;2022-10-23T12:05:32;16.67;;;6.53;;
66856;SDS011;53766;50.280;19.160;2022-10-23T12:08:04;19.27;;;6.65;;
66856;SDS011;53766;50.280;19.160;2022-10-23T12:10:45;18.13;;;7.00;;
66856;SDS011;53766;50.280;19.160;2022-10-23T12:16:13;18.30;;;6.78;;
66856;SDS011;53766;50.280;19.160;2022-10-23T12:18:46;13.23;;;6.82;;
66856;SDS011;53766;50.280;19.160;2022-10-23T12:21:20;13.00;;;6.50;;
66856;SDS011;53766;50.280;19.160;2022-10-23T12:29:20;16.48;;;7.00;;
66856;SDS011;53766;50.280;19.160;2022-10-23T12:39:55;11.10;;;6.65;;
66856;SDS011;53766;50.280;19.160;2022-10-23T12:42:26;12.38;;;6.63;;
66856;SDS011;53766;50.280;19.160;2022-10-23T12:45:02;12.55;;;7.22;;
66856;SDS011;53766;50.280;19.160;2022-10-23T12:47:44;15.00;;;6.85;;
66856;SDS011;53766;50.280;19.160;2022-10-23T12:52:57;12.25;;;6.28;;
66856;SDS011;53766;50.280;19.160;2022-10-23T12:55:30;14.18;;;6.40;;
66856;SDS011;53766;50.280;19.160;2022-10-23T12:58:17;17.20;;;6.45;;
66856;SDS011;53766;50.280;19.160;2022-10-23T13:00:51;18.52;;;6.68;;
66856;SDS011;53766;50.280;19.160;2022-10-23T13:03:27;12.15;;;6.53;;
66856;SDS011;53766;50.280;19.160;2022-10-23T13:06:00;17.75;;;7.15;;
66856;SDS011;53766;50.280;19.160;2022-10-23T13:08:40;13.98;;;6.90;;
66856;SDS011;53766;50.280;19.160;2022-10-23T13:11:14;22.85;;;6.75;;
66856;SDS011;53766;50.280;19.160;2022-10-23T13:13:44;15.40;;;6.27;;
66856;SDS011;53766;50.280;19.160;2022-10-23T13:16:16;16.00;;;6.70;;
66856;SDS011;53766;50.280;19.160;2022-10-23T13:18:49;16.33;;;6.53;;
66856;SDS011;53766;50.280;19.160;2022-10-23T13:21:19;13.40;;;6.20;;
66856;SDS011;53766;50.280;19.160;2022-10-23T13:23:52;17.35;;;6.35;;
66856;SDS011;53766;50.280;19.160;2022-10-23T13:26:24;14.18;;;6.70;;
66856;SDS011;53766;50.280;19.160;2022-10-23T13:28:55;11.40;;;6.28;;
66856;SDS011;53766;50.280;19.160;2022-10-23T13:31:25;16.58;;;6.72;;
66856;SDS011;53766;50.280;19.160;2022-10-23T13:36:30;13.05;;;6.20;;
66856;SDS011;53766;50.280;19.160;2022-10-23T13:41:41;12.30;;;6.57;;
66856;SDS011;53766;50.280;19.160;2022-10-23T13:44:12;15.32;;;6.35;;
66856;SDS011;53766;50.280;19.160;2022-10-23T13:46:41;12.90;;;6.32;;
66856;SDS011;53766;50.280;19.160;2022-10-23T13:49:10;16.70;;;7.13;;
66856;SDS011;53766;50.280;19.160;2022-10-23T13:51:42;14.30;;;7.03;;
66856;SDS011;53766;50.280;19.160;2022-10-23T13:54:18;13.23;;;6.40;;
66856;SDS011;53766;50.280;19.160;2022-10-23T13:56:50;12.20;;;6.28;;
66856;SDS011;53766;50.280;19.160;2022-10-23T13:59:20;13.45;;;6.38;;
66856;SDS011;53766;50.280;19.160;2022-10-23T14:01:48;11.02;;;6.28;;
66856;SDS011;53766;50.280;19.160;2022-10-23T14:04:17;12.30;;;6.30;;
66856;SDS011;53766;50.280;19.160;2022-10-23T14:06:46;16.13;;;6.60;;
66856;SDS011;53766;50.280;19.160;2022-10-23T14:09:15;13.98;;;6.40;;
66856;SDS011;53766;50.280;19.160;2022-10-23T14:11:44;11.77;;;6.05;;
66856;SDS011;53766;50.280;19.160;2022-10-23T14:14:12;12.40;;;6.10;;
66856;SDS011;53766;50.280;19.160;2022-10-23T14:16:39;15.25;;;6.30;;
66856;SDS011;53766;50.280;19.160;2022-10-23T14:19:07;14.55;;;6.43;;
66856;SDS011;53766;50.280;19.160;2022-10-23T14:21:37;13.40;;;5.65;;
66856;SDS011;53766;50.280;19.160;2022-10-23T14:24:05;12.15;;;6.35;;
66856;SDS011;53766;50.280;19.160;2022-10-23T14:26:33;12.82;;;5.75;;
66856;SDS011;53766;50.280;19.160;2022-10-23T14:29:00;13.18;;;6.18;;
66856;SDS011;53766;50.280;19.160;2022-10-23T14:31:36;12.95;;;5.90;;
66856;SDS011;53766;50.280;19.160;2022-10-23T14:34:03;13.23;;;6.10;;
66856;SDS011;53766;50.280;19.160;2022-10-23T14:36:31;14.55;;;6.50;;
66856;SDS011;53766;50.280;19.160;2022-10-23T14:39:17;10.27;;;5.60;;
66856;SDS011;53766;50.280;19.160;2022-10-23T14:41:44;14.65;;;6.40;;
66856;SDS011;53766;50.280;19.160;2022-10-23T14:44:13;12.13;;;6.00;;
66856;SDS011;53766;50.280;19.160;2022-10-23T14:46:41;12.90;;;5.55;;
66856;SDS011;53766;50.280;19.160;2022-10-23T14:49:08;10.55;;;5.63;;
66856;SDS011;53766;50.280;19.160;2022-10-23T14:51:36;13.75;;;5.35;;
66856;SDS011;53766;50.280;19.160;2022-10-23T14:54:04;13.80;;;5.75;;
66856;SDS011;53766;50.280;19.160;2022-10-23T14:56:35;12.27;;;6.00;;
66856;SDS011;53766;50.280;19.160;2022-10-23T14:59:04;10.93;;;5.38;;
66856;SDS011;53766;50.280;19.160;2022-10-23T15:01:33;14.30;;;5.70;;
66856;SDS011;53766;50.280;19.160;2022-10-23T15:04:05;15.45;;;5.55;;
66856;SDS011;53766;50.280;19.160;2022-10-23T15:06:33;9.15;;;5.30;;
66856;SDS011;53766;50.280;19.160;2022-10-23T15:09:02;9.73;;;5.50;;
66856;SDS011;53766;50.280;19.160;2022-10-23T15:11:30;7.85;;;5.25;;
66856;SDS011;53766;50.280;19.160;2022-10-23T15:13:58;9.30;;;5.20;;
66856;SDS011;53766;50.280;19.160;2022-10-23T15:16:27;10.35;;;5.30;;
66856;SDS011;53766;50.280;19.160;2022-10-23T15:18:54;11.73;;;5.82;;
66856;SDS011;53766;50.280;19.160;2022-10-23T15:21:22;10.75;;;5.50;;
66856;SDS011;53766;50.280;19.160;2022-10-23T15:23:51;13.57;;;5.82;;
66856;SDS011;53766;50.280;19.160;2022-10-23T15:26:20;13.75;;;5.82;;
66856;SDS011;53766;50.280;19.160;2022-10-23T15:28:53;34.17;;;6.13;;
66856;SDS011;53766;50.280;19.160;2022-10-23T15:34:09;11.65;;;5.18;;
66856;SDS011;53766;50.280;19.160;2022-10-23T15:36:38;18.42;;;6.07;;
66856;SDS011;53766;50.280;19.160;2022-10-23T15:39:10;8.93;;;5.25;;
66856;SDS011;53766;50.280;19.160;2022-10-23T15:41:39;13.05;;;5.70;;
66856;SDS011;53766;50.280;19.160;2022-10-23T15:44:10;11.43;;;5.10;;
66856;SDS011;53766;50.280;19.160;2022-10-23T15:46:41;11.75;;;5.10;;
66856;SDS011;53766;50.280;19.160;2022-10-23T15:49:09;10.32;;;5.30;;
66856;SDS011;53766;50.280;19.160;2022-10-23T15:51:41;9.27;;;4.97;;
66856;SDS011;53766;50.280;19.160;2022-10-23T15:54:11;10.73;;;5.43;;
66856;SDS011;53766;50.280;19.160;2022-10-23T15:57:00;10.68;;;5.20;;
66856;SDS011;53766;50.280;19.160;2022-10-23T15:59:28;9.50;;;5.28;;
66856;SDS011;53766;50.280;19.160;2022-10-23T16:01:58;14.63;;;5.10;;
66856;SDS011;53766;50.280;19.160;2022-10-23T16:04:32;10.70;;;4.95;;
66856;SDS011;53766;50.280;19.160;2022-10-23T16:07:01;9.70;;;5.47;;
66856;SDS011;53766;50.280;19.160;2022-10-23T16:09:29;8.35;;;5.00;;
66856;SDS011;53766;50.280;19.160;2022-10-23T16:11:57;17.92;;;5.18;;
66856;SDS011;53766;50.280;19.160;2022-10-23T16:14:25;9.80;;;5.43;;
66856;SDS011;53766;50.280;19.160;2022-10-23T16:16:55;11.02;;;5.35;;
66856;SDS011;53766;50.280;19.160;2022-10-23T16:19:23;9.15;;;5.20;;
66856;SDS011;53766;50.280;19.160;2022-10-23T16:21:50;13.88;;;4.95;;
66856;SDS011;53766;50.280;19.160;2022-10-23T16:24:18;13.13;;;4.97;;
66856;SDS011;53766;50.280;19.160;2022-10-23T16:26:46;8.82;;;5.43;;
66856;SDS011;53766;50.280;19.160;2022-10-23T16:29:19;9.93;;;4.80;;
66856;SDS011;53766;50.280;19.160;2022-10-23T16:31:48;10.15;;;5.07;;
66856;SDS011;53766;50.280;19.160;2022-10-23T16:34:19;11.75;;;5.57;;
66856;SDS011;53766;50.280;19.160;2022-10-23T16:36:47;13.10;;;5.45;;
66856;SDS011;53766;50.280;19.160;2022-10-23T16:39:16;12.73;;;5.25;;
66856;SDS011;53766;50.280;19.160;2022-10-23T16:41:45;11.90;;;5.57;;
66856;SDS011;53766;50.280;19.160;2022-10-23T16:44:13;12.68;;;4.82;;
66856;SDS011;53766;50.280;19.160;2022-10-23T16:46:41;15.38;;;5.57;;
66856;SDS011;53766;50.280;19.160;2022-10-23T16:49:09;15.48;;;5.57;;
66856;SDS011;53766;50.280;19.160;2022-10-23T16:51:37;12.25;;;5.10;;
66856;SDS011;53766;50.280;19.160;2022-10-23T16:54:06;9.73;;;5.15;;
66856;SDS011;53766;50.280;19.160;2022-10-23T16:56:33;11.70;;;5.43;;
66856;SDS011;53766;50.280;19.160;2022-10-23T16:59:01;12.27;;;5.45;;
66856;SDS011;53766;50.280;19.160;2022-10-23T17:01:30;13.13;;;5.15;;
66856;SDS011;53766;50.280;19.160;2022-10-23T17:03:59;9.80;;;4.80;;
66856;SDS011;53766;50.280;19.160;2022-10-23T17:06:27;13.80;;;5.72;;
66856;SDS011;53766;50.280;19.160;2022-10-23T17:08:58;10.57;;;5.68;;
66856;SDS011;53766;50.280;19.160;2022-10-23T17:11:27;13.73;;;5.95;;
66856;SDS011;53766;50.280;19.160;2022-10-23T17:14:01;9.52;;;5.00;;
66856;SDS011;53766;50.280;19.160;2022-10-23T17:17:05;9.10;;;5.20;;
66856;SDS011;53766;50.280;19.160;2022-10-23T17:19:29;9.93;;;5.25;;
66856;SDS011;53766;50.280;19.160;2022-10-23T17:22:13;9.45;;;5.47;;
66856;SDS011;53766;50.280;19.160;2022-10-23T17:24:41;9.93;;;4.97;;